createdAt,value
2022-08-24T00:01:48.807Z,23.49
2022-08-24T00:04:22.775Z,23.52
2022-08-24T00:06:56.037Z,23.53
2022-08-24T00:09:32.744Z,23.48
2022-08-24T00:12:08.456Z,23.43
2022-08-24T00:14:45.624Z,23.39
2022-08-24T00:17:20.886Z,23.38
2022-08-24T00:19:54.733Z,23.41
2022-08-24T00:22:29.429Z,23.38
2022-08-24T00:25:02.608Z,23.35
2022-08-24T00:27:36.814Z,23.36
2022-08-24T00:30:15.773Z,23.35
2022-08-24T00:32:49.929Z,23.31
2022-08-24T00:35:24.563Z,23.27
2022-08-24T00:37:58.955Z,23.22
2022-08-24T00:40:35.386Z,23.17
2022-08-24T00:43:11.572Z,23.19
2022-08-24T00:45:51.442Z,23.22
2022-08-24T00:48:29.039Z,23.19
2022-08-24T00:51:06.526Z,23.12
2022-08-24T00:53:43.166Z,23.06
2022-08-24T00:56:19.857Z,23.02
2022-08-24T00:58:59.564Z,22.98
2022-08-24T01:01:35.322Z,23.00
2022-08-24T01:04:13.096Z,23.00
2022-08-24T01:06:49.803Z,23.01
2022-08-24T01:09:23.692Z,23.03
2022-08-24T01:11:57.574Z,23.01
2022-08-24T01:14:31.580Z,22.98
2022-08-24T01:17:23.325Z,22.95
2022-08-24T01:19:59.825Z,22.95
2022-08-24T01:22:47.044Z,22.96
2022-08-24T01:25:21.698Z,22.96
2022-08-24T01:27:58.378Z,22.93
2022-08-24T01:30:36.313Z,22.90
2022-08-24T01:33:12.566Z,22.86
2022-08-24T01:35:46.964Z,22.83
2022-08-24T01:38:20.549Z,22.83
2022-08-24T01:41:02.527Z,22.83
2022-08-24T01:43:37.511Z,22.84
2022-08-24T01:46:13.268Z,22.80
2022-08-24T01:48:46.716Z,22.80
2022-08-24T01:51:21.447Z,22.81
2022-08-24T01:53:54.897Z,22.82
2022-08-24T01:56:28.112Z,22.81
2022-08-24T01:59:05.141Z,22.78
2022-08-24T02:01:44.031Z,22.73
2022-08-24T02:04:18.958Z,22.65
2022-08-24T02:06:54.333Z,22.64
2022-08-24T02:09:32.717Z,22.63
2022-08-24T02:12:08.585Z,22.63
2022-08-24T02:14:41.776Z,22.62
2022-08-24T02:17:16.724Z,22.60
2022-08-24T02:19:49.930Z,22.59
2022-08-24T02:22:24.727Z,22.59
2022-08-24T02:24:58.287Z,22.60
2022-08-24T02:27:32.089Z,22.62
2022-08-24T02:30:05.880Z,22.61
2022-08-24T02:32:39.699Z,22.61
2022-08-24T02:35:13.709Z,22.62
2022-08-24T02:37:47.251Z,22.64
2022-08-24T02:40:20.851Z,22.65
2022-08-24T02:42:55.943Z,22.63
2022-08-24T02:45:29.849Z,22.58
2022-08-24T02:48:03.092Z,22.53
2022-08-24T02:50:39.369Z,22.48
2022-08-24T02:53:14.355Z,22.50
2022-08-24T02:55:48.386Z,22.51
2022-08-24T02:58:22.581Z,22.54
2022-08-24T03:00:57.411Z,22.59
2022-08-24T03:03:31.062Z,22.60
2022-08-24T03:06:04.509Z,22.60
2022-08-24T03:08:38.700Z,22.57
2022-08-24T03:11:13.303Z,22.58
2022-08-24T03:13:47.084Z,22.57
2022-08-24T03:16:20.775Z,22.56
2022-08-24T03:18:54.090Z,22.53
2022-08-24T03:21:28.167Z,22.50
2022-08-24T03:24:02.512Z,22.51
2022-08-24T03:26:36.214Z,22.52
2022-08-24T03:29:09.831Z,22.52
2022-08-24T03:31:44.111Z,22.51
2022-08-24T03:34:17.757Z,22.49
2022-08-24T03:36:50.990Z,22.52
2022-08-24T03:39:23.964Z,22.52
2022-08-24T03:41:59.781Z,22.52
2022-08-24T03:44:33.287Z,22.50
2022-08-24T03:47:08.046Z,22.50
2022-08-24T03:49:42.026Z,22.49
2022-08-24T03:52:15.717Z,22.51
2022-08-24T03:54:50.128Z,22.55
2022-08-24T03:57:24.010Z,22.60
2022-08-24T03:59:57.653Z,22.65
2022-08-24T04:02:33.071Z,22.66
2022-08-24T04:05:07.450Z,22.66
2022-08-24T04:07:40.971Z,22.63
2022-08-24T04:10:15.490Z,22.62
2022-08-24T04:12:49.049Z,22.64
2022-08-24T04:15:24.767Z,22.67
2022-08-24T04:17:58.027Z,22.71
2022-08-24T04:20:31.563Z,22.71
2022-08-24T04:23:05.183Z,22.72
2022-08-24T04:25:45.410Z,22.76
2022-08-24T04:28:21.384Z,22.80
2022-08-24T04:30:54.745Z,22.81
2022-08-24T04:33:37.427Z,22.82
2022-08-24T04:36:12.902Z,22.84
2022-08-24T04:38:49.238Z,22.87
2022-08-24T04:41:42.452Z,22.90
2022-08-24T04:44:16.132Z,22.91
2022-08-24T04:46:49.924Z,22.88
2022-08-24T04:49:23.250Z,22.88
2022-08-24T04:51:56.752Z,22.92
2022-08-24T04:54:30.847Z,22.95
2022-08-24T04:57:18.302Z,23.00
2022-08-24T04:59:52.400Z,22.97
2022-08-24T05:02:26.103Z,22.96
2022-08-24T05:05:01.539Z,22.96
2022-08-24T05:07:34.814Z,22.96
2022-08-24T05:10:11.800Z,22.96
2022-08-24T05:12:45.607Z,23.00
2022-08-24T05:15:19.144Z,23.06
2022-08-24T05:17:52.857Z,23.08
2022-08-24T05:20:26.522Z,23.11
2022-08-24T05:23:04.287Z,23.16
2022-08-24T05:25:37.535Z,23.22
2022-08-24T05:28:11.321Z,23.27
2022-08-24T05:30:44.785Z,23.31
2022-08-24T05:33:18.288Z,23.34
2022-08-24T05:35:51.886Z,23.38
2022-08-24T05:38:25.765Z,23.44
2022-08-24T05:40:58.813Z,23.49
2022-08-24T05:43:32.205Z,23.50
2022-08-24T05:46:06.118Z,23.43
2022-08-24T05:48:39.462Z,23.35
2022-08-24T05:51:13.543Z,23.37
2022-08-24T05:53:54.656Z,23.44
2022-08-24T05:56:31.929Z,23.48
2022-08-24T05:59:06.749Z,23.53
2022-08-24T06:01:44.986Z,23.60
2022-08-24T06:04:20.404Z,23.58
2022-08-24T06:06:54.024Z,23.59
2022-08-24T06:09:27.296Z,23.69
2022-08-24T06:12:01.201Z,23.83
2022-08-24T06:14:35.233Z,24.02
2022-08-24T06:17:10.690Z,24.20
2022-08-24T06:19:45.496Z,24.48
2022-08-24T06:22:19.168Z,24.80
2022-08-24T06:25:10.748Z,25.05
2022-08-24T06:27:43.729Z,25.21
2022-08-24T06:30:17.457Z,25.31
2022-08-24T06:32:51.160Z,25.38
2022-08-24T06:35:35.127Z,25.50
2022-08-24T06:38:08.154Z,25.69
2022-08-24T06:40:43.226Z,26.04
2022-08-24T06:43:16.922Z,26.27
2022-08-24T06:45:57.861Z,26.61
2022-08-24T06:48:35.411Z,26.98
2022-08-24T06:51:13.086Z,27.48
2022-08-24T06:53:47.010Z,28.04
2022-08-24T06:56:21.451Z,28.65
2022-08-24T06:58:55.105Z,28.91
2022-08-24T07:01:29.898Z,29.21
2022-08-24T07:04:03.530Z,29.64
2022-08-24T07:07:12.437Z,29.99
2022-08-24T07:09:45.893Z,30.04
2022-08-24T07:12:19.812Z,30.00
2022-08-24T07:14:52.939Z,29.89
2022-08-24T07:17:26.839Z,29.97
2022-08-24T07:20:00.082Z,30.00
2022-08-24T07:22:52.689Z,29.96
2022-08-24T07:25:26.125Z,29.85
2022-08-24T07:28:01.066Z,29.72
2022-08-24T07:30:34.155Z,29.66
2022-08-24T07:33:08.610Z,29.71
2022-08-24T07:35:42.363Z,29.72
2022-08-24T07:38:16.172Z,29.50
2022-08-24T07:43:47.635Z,29.29
2022-08-24T07:46:21.102Z,29.20
2022-08-24T07:49:05.032Z,29.25
2022-08-24T07:51:47.080Z,29.27
2022-08-24T07:54:21.211Z,29.20
2022-08-24T07:56:54.853Z,29.18
2022-08-24T07:59:28.811Z,29.23
2022-08-24T08:02:03.329Z,29.34
2022-08-24T08:04:37.061Z,29.44
2022-08-24T08:07:10.995Z,29.62
2022-08-24T08:09:44.277Z,29.76
2022-08-24T08:12:18.601Z,29.83
2022-08-24T08:15:00.373Z,30.00
2022-08-24T08:17:33.951Z,30.09
2022-08-24T08:20:09.287Z,30.17
2022-08-24T08:23:00.526Z,30.27
2022-08-24T08:25:54.813Z,30.35
2022-08-24T08:28:49.711Z,30.26
2022-08-24T08:31:23.502Z,30.09
2022-08-24T08:33:57.716Z,29.96
2022-08-24T08:36:33.766Z,29.81
2022-08-24T08:39:07.665Z,29.71
2022-08-24T08:42:18.936Z,29.65
2022-08-24T08:45:11.287Z,29.64
2022-08-24T08:48:34.725Z,29.71
2022-08-24T08:51:53.705Z,29.78
2022-08-24T08:54:46.191Z,29.71
2022-08-24T08:57:34.122Z,29.63
2022-08-24T09:00:19.928Z,29.55
2022-08-24T09:03:22.893Z,29.44
2022-08-24T09:06:50.848Z,29.26
2022-08-24T09:10:05.167Z,29.18
2022-08-24T09:12:54.726Z,29.06
2022-08-24T09:15:47.054Z,28.94
2022-08-24T09:18:43.302Z,28.89
2022-08-24T09:21:33.299Z,28.89
2022-08-24T09:24:23.621Z,28.95
2022-08-24T09:27:11.214Z,28.97
2022-08-24T09:30:01.538Z,29.02
2022-08-24T09:32:59.796Z,29.12
2022-08-24T09:35:36.412Z,29.29
2022-08-24T09:38:24.987Z,29.44
2022-08-24T09:41:26.932Z,29.60
2022-08-24T09:44:38.826Z,29.75
2022-08-24T09:47:40.218Z,29.87
2022-08-24T09:50:41.586Z,30.00
2022-08-24T09:53:52.351Z,30.06
2022-08-24T09:57:09.310Z,30.14
2022-08-24T10:00:10.431Z,30.23
2022-08-24T10:03:08.871Z,30.31
2022-08-24T10:06:12.941Z,30.36
2022-08-24T10:09:05.477Z,30.37
2022-08-24T10:11:48.969Z,30.34
2022-08-24T10:14:38.268Z,30.38
2022-08-24T10:17:21.543Z,30.58
2022-08-24T10:20:09.761Z,30.58
2022-08-24T10:23:00.699Z,30.53
2022-08-24T10:25:40.661Z,30.45
2022-08-24T10:28:41.328Z,30.37
2022-08-24T10:31:20.928Z,30.28
2022-08-24T10:34:05.612Z,30.19
2022-08-24T10:37:10.571Z,30.11
2022-08-24T10:40:06.294Z,29.99
2022-08-24T10:43:36.134Z,29.91
2022-08-24T10:46:30.347Z,29.83
2022-08-24T10:49:39.486Z,29.75
2022-08-24T10:52:49.012Z,29.69
2022-08-24T10:55:25.391Z,29.63
2022-08-24T10:58:13.993Z,29.56
2022-08-24T11:00:48.147Z,29.52
2022-08-24T11:03:28.221Z,29.53
2022-08-24T11:06:02.290Z,29.52
2022-08-24T11:08:35.728Z,29.51
2022-08-24T11:11:12.422Z,29.52
2022-08-24T11:13:59.471Z,29.56
2022-08-24T11:16:37.203Z,29.54
2022-08-24T11:19:14.697Z,29.50
2022-08-24T11:21:53.662Z,29.47
2022-08-24T11:24:40.926Z,29.45
2022-08-24T11:27:28.068Z,29.42
2022-08-24T11:30:10.049Z,29.41
2022-08-24T11:32:46.661Z,29.40
2022-08-24T11:35:27.311Z,29.41
2022-08-24T11:38:09.022Z,29.45
2022-08-24T11:40:45.897Z,29.49
2022-08-24T11:43:33.017Z,29.54
2022-08-24T11:46:20.048Z,29.56
2022-08-24T11:49:03.080Z,29.54
2022-08-24T11:51:48.199Z,29.54
2022-08-24T11:54:31.872Z,29.52
2022-08-24T11:57:18.501Z,29.49
2022-08-24T11:59:56.724Z,29.48
2022-08-24T12:02:35.846Z,29.48
2022-08-24T12:05:20.840Z,29.46
2022-08-24T12:08:04.499Z,29.48
2022-08-24T12:10:45.780Z,29.48
2022-08-24T12:13:35.092Z,29.50
2022-08-24T12:16:13.304Z,29.51
2022-08-24T12:18:57.855Z,29.58
2022-08-24T12:21:34.281Z,29.70
2022-08-24T12:24:11.758Z,29.93
2022-08-24T12:26:49.033Z,30.16
2022-08-24T12:29:30.057Z,30.30
2022-08-24T12:32:09.551Z,30.37
2022-08-24T12:34:54.191Z,30.46
2022-08-24T12:37:36.334Z,30.58
2022-08-24T12:40:23.099Z,30.74
2022-08-24T12:43:02.240Z,30.89
2022-08-24T12:45:37.384Z,31.00
2022-08-24T12:48:16.687Z,31.11
2022-08-24T12:51:03.776Z,31.21
2022-08-24T12:53:53.990Z,31.29
2022-08-24T12:56:54.108Z,31.50
2022-08-24T12:59:30.539Z,31.67
2022-08-24T13:02:06.506Z,31.81
2022-08-24T13:04:46.563Z,31.82
2022-08-24T13:07:40.700Z,31.82
2022-08-24T13:10:35.020Z,31.84
2022-08-24T13:13:21.668Z,31.80
2022-08-24T13:16:01.278Z,31.79
2022-08-24T13:19:13.252Z,31.71
2022-08-24T13:21:57.438Z,31.72
2022-08-24T13:25:03.330Z,31.76
2022-08-24T13:28:06.063Z,31.79
2022-08-24T13:31:15.323Z,31.75
2022-08-24T13:33:51.635Z,31.76
2022-08-24T13:37:04.199Z,31.74
2022-08-24T13:40:00.786Z,31.78
2022-08-24T13:43:04.673Z,31.79
2022-08-24T13:45:44.516Z,31.75
2022-08-24T13:48:45.296Z,31.74
2022-08-24T13:51:37.171Z,31.76
2022-08-24T13:54:22.666Z,31.78
2022-08-24T13:57:21.492Z,31.79
2022-08-24T14:00:13.371Z,31.80
2022-08-24T14:03:07.665Z,31.80
2022-08-24T14:05:49.863Z,31.76
2022-08-24T14:08:37.667Z,31.76
2022-08-24T14:11:16.769Z,31.79
2022-08-24T14:14:04.157Z,31.80
2022-08-24T14:17:06.094Z,31.83
2022-08-24T14:19:50.346Z,31.80
2022-08-24T14:22:35.531Z,31.78
2022-08-24T14:25:21.465Z,31.78
2022-08-24T14:28:15.535Z,31.79
2022-08-24T14:31:19.052Z,31.80
2022-08-24T14:34:08.767Z,31.73
2022-08-24T14:36:57.592Z,31.69
2022-08-24T14:39:42.117Z,31.65
2022-08-24T14:42:23.303Z,31.64
2022-08-24T14:45:06.286Z,31.65
2022-08-24T14:47:55.549Z,31.67
2022-08-24T14:50:35.093Z,31.67
2022-08-24T14:53:29.498Z,31.67
2022-08-24T14:56:19.203Z,31.64
2022-08-24T14:59:03.774Z,31.61
2022-08-24T15:01:46.179Z,31.59
2022-08-24T15:04:44.596Z,31.57
2022-08-24T15:07:33.147Z,31.57
2022-08-24T15:10:16.112Z,31.57
2022-08-24T15:13:03.823Z,31.56
2022-08-24T15:15:45.067Z,31.58
2022-08-24T15:18:36.189Z,31.59
2022-08-24T15:21:29.811Z,31.62
2022-08-24T15:24:15.923Z,31.64
2022-08-24T15:26:59.566Z,31.62
2022-08-24T15:29:36.223Z,31.60
2022-08-24T15:32:13.820Z,31.60
2022-08-24T15:34:49.786Z,31.59
2022-08-24T15:37:33.844Z,31.57
2022-08-24T15:40:18.246Z,31.53
2022-08-24T15:42:52.407Z,31.50
2022-08-24T15:45:26.422Z,31.43
2022-08-24T15:48:02.382Z,31.39
2022-08-24T15:50:41.650Z,31.35
2022-08-24T15:53:34.286Z,31.32
2022-08-24T15:56:36.202Z,31.28
2022-08-24T15:59:15.005Z,31.22
2022-08-24T16:02:17.357Z,31.17
2022-08-24T16:04:52.009Z,31.10
2022-08-24T16:07:35.508Z,31.04
2022-08-24T16:10:13.304Z,30.99
2022-08-24T16:12:46.401Z,30.94
2022-08-24T16:15:21.068Z,30.89
2022-08-24T16:17:59.484Z,30.84
2022-08-24T16:20:37.457Z,30.80
2022-08-24T16:23:16.512Z,30.75
2022-08-24T16:25:51.377Z,30.71
2022-08-24T16:28:38.144Z,30.68
2022-08-24T16:31:13.825Z,30.61
2022-08-24T16:33:49.812Z,30.53
2022-08-24T16:36:23.024Z,30.46
2022-08-24T16:38:56.111Z,30.39
2022-08-24T16:41:34.438Z,30.33
2022-08-24T16:44:11.094Z,30.26
2022-08-24T16:46:47.273Z,30.16
2022-08-24T16:49:21.791Z,30.08
2022-08-24T16:51:55.177Z,30.00
2022-08-24T16:54:28.114Z,29.95
2022-08-24T16:57:05.023Z,29.90
2022-08-24T16:59:38.654Z,29.86
2022-08-24T17:02:11.980Z,29.79
2022-08-24T17:04:45.603Z,29.74
2022-08-24T17:07:22.358Z,29.69
2022-08-24T17:09:56.675Z,29.63
2022-08-24T17:12:31.620Z,29.55
2022-08-24T17:15:05.605Z,29.49
2022-08-24T17:17:39.675Z,29.46
2022-08-24T17:20:14.251Z,29.42
2022-08-24T17:22:47.606Z,29.38
2022-08-24T17:25:21.272Z,29.34
2022-08-24T17:27:56.739Z,29.30
2022-08-24T17:30:31.817Z,29.27
2022-08-24T17:33:05.756Z,29.23
2022-08-24T17:35:40.907Z,29.21
2022-08-24T17:38:14.385Z,29.19
2022-08-24T17:40:48.559Z,29.15
2022-08-24T17:43:22.444Z,29.10
2022-08-24T17:45:55.909Z,29.03
2022-08-24T17:48:30.084Z,28.98
2022-08-24T17:51:03.589Z,28.94
2022-08-24T17:53:37.606Z,28.88
2022-08-24T17:56:13.065Z,28.85
2022-08-24T17:59:04.500Z,28.81
2022-08-24T18:01:38.632Z,28.76
2022-08-24T18:04:11.760Z,28.72
2022-08-24T18:06:45.214Z,28.69
2022-08-24T18:09:24.822Z,28.68
2022-08-24T18:11:59.333Z,28.67
2022-08-24T18:14:35.019Z,28.65
2022-08-24T18:17:11.725Z,28.63
2022-08-24T18:19:45.613Z,28.62
2022-08-24T18:22:18.951Z,28.61
2022-08-24T18:24:52.553Z,28.59
2022-08-24T18:27:29.068Z,28.56
2022-08-24T18:30:06.454Z,28.54
2022-08-24T18:32:41.896Z,28.52
2022-08-24T18:35:15.495Z,28.47
2022-08-24T18:37:48.816Z,28.46
2022-08-24T18:40:23.128Z,28.43
2022-08-24T18:42:57.033Z,28.40
2022-08-24T18:45:34.825Z,28.37
2022-08-24T18:48:09.308Z,28.35
2022-08-24T18:50:42.649Z,28.35
2022-08-24T18:53:16.421Z,28.33
2022-08-24T18:55:49.772Z,28.32
2022-08-24T18:58:23.784Z,28.32
2022-08-24T19:00:57.408Z,28.33
2022-08-24T19:03:30.781Z,28.33
2022-08-24T19:06:03.973Z,28.23
2022-08-24T19:08:38.072Z,28.07
2022-08-24T19:11:12.101Z,27.84
2022-08-24T19:13:46.092Z,27.64
2022-08-24T19:16:20.798Z,27.55
2022-08-24T19:18:54.504Z,27.55
2022-08-24T19:21:29.286Z,27.58
2022-08-24T19:24:04.563Z,27.60
2022-08-24T19:26:38.365Z,27.64
2022-08-24T19:29:12.106Z,27.66
2022-08-24T19:31:45.944Z,27.62
2022-08-24T19:34:18.958Z,27.55
2022-08-24T19:36:53.216Z,27.37
2022-08-24T19:39:31.515Z,27.25
2022-08-24T19:42:07.049Z,27.16
2022-08-24T19:45:02.900Z,27.10
2022-08-24T19:47:38.492Z,27.05
2022-08-24T19:50:15.189Z,26.97
2022-08-24T19:52:54.525Z,26.91
2022-08-24T19:55:28.111Z,26.83
2022-08-24T19:58:08.322Z,26.75
2022-08-24T20:00:48.162Z,26.61
2022-08-24T20:03:24.730Z,26.47
2022-08-24T20:05:58.318Z,26.33
2022-08-24T20:08:32.058Z,26.23
2022-08-24T20:11:05.278Z,26.13
2022-08-24T20:13:39.295Z,26.08
2022-08-24T20:16:15.811Z,26.03
2022-08-24T20:18:49.530Z,25.94
2022-08-24T20:21:26.130Z,25.85
2022-08-24T20:24:02.254Z,25.78
2022-08-24T20:26:43.059Z,25.71
2022-08-24T20:29:17.163Z,25.69
2022-08-24T20:31:56.307Z,25.66
2022-08-24T20:34:30.973Z,25.63
2022-08-24T20:37:04.984Z,25.61
2022-08-24T20:39:38.975Z,25.56
2022-08-24T20:42:16.450Z,25.48
2022-08-24T20:44:51.864Z,25.41
2022-08-24T20:47:25.972Z,25.37
2022-08-24T20:49:59.185Z,25.34
2022-08-24T20:52:32.341Z,25.31
2022-08-24T20:55:06.147Z,25.29
2022-08-24T20:57:39.830Z,25.28
2022-08-24T21:00:16.604Z,25.24
2022-08-24T21:02:50.414Z,25.19
2022-08-24T21:05:23.644Z,25.18
2022-08-24T21:07:58.395Z,25.16
2022-08-24T21:10:32.958Z,25.16
2022-08-24T21:13:06.862Z,25.17
2022-08-24T21:15:42.206Z,25.15
2022-08-24T21:18:15.676Z,25.11
2022-08-24T21:21:03.838Z,25.07
2022-08-24T21:23:38.352Z,25.08
2022-08-24T21:26:15.258Z,25.10
2022-08-24T21:28:49.768Z,25.05
2022-08-24T21:31:23.580Z,24.99
2022-08-24T21:34:14.628Z,24.96
2022-08-24T21:36:48.404Z,24.95
2022-08-24T21:39:21.749Z,24.97
2022-08-24T21:41:55.390Z,24.93
2022-08-24T21:44:29.052Z,24.88
2022-08-24T21:47:03.533Z,24.84
2022-08-24T21:49:37.106Z,24.83
2022-08-24T21:52:11.089Z,24.81
2022-08-24T21:54:45.341Z,24.79
2022-08-24T21:57:18.267Z,24.74
2022-08-24T21:59:51.820Z,24.72
2022-08-24T22:02:25.379Z,24.69
2022-08-24T22:04:58.675Z,24.66
2022-08-24T22:07:32.386Z,24.64
2022-08-24T22:10:07.686Z,24.63
2022-08-24T22:12:42.889Z,24.60
2022-08-24T22:15:18.590Z,24.60
2022-08-24T22:17:56.498Z,24.59
2022-08-24T22:20:30.170Z,24.56
2022-08-24T22:23:03.617Z,24.52
2022-08-24T22:25:37.223Z,24.49
2022-08-24T22:28:10.293Z,24.46
2022-08-24T22:30:48.881Z,24.42
2022-08-24T22:33:23.044Z,24.39
2022-08-24T22:35:57.056Z,24.38
2022-08-24T22:38:30.636Z,24.35
2022-08-24T22:41:04.193Z,24.34
2022-08-24T22:43:54.752Z,24.33
2022-08-24T22:46:29.365Z,24.32
2022-08-24T22:49:03.525Z,24.33
2022-08-24T22:51:37.841Z,24.33
2022-08-24T22:54:11.369Z,24.31
2022-08-24T22:56:46.721Z,24.29
2022-08-24T22:59:23.794Z,24.26
2022-08-24T23:01:58.886Z,24.22
2022-08-24T23:04:36.287Z,24.23
2022-08-24T23:07:10.499Z,24.23
2022-08-24T23:09:45.591Z,24.18
2022-08-24T23:12:23.333Z,24.16
2022-08-24T23:14:57.478Z,24.14
2022-08-24T23:17:31.443Z,24.15
2022-08-24T23:20:08.186Z,24.15
2022-08-24T23:22:43.823Z,24.15
2022-08-24T23:25:17.619Z,24.14
2022-08-24T23:27:50.735Z,24.15
2022-08-24T23:30:24.171Z,24.16
2022-08-24T23:32:58.172Z,24.16
2022-08-24T23:35:31.612Z,24.14
2022-08-24T23:38:05.261Z,24.15
2022-08-24T23:40:41.927Z,24.15
2022-08-24T23:43:15.846Z,24.14
2022-08-24T23:45:49.721Z,24.12
2022-08-24T23:48:23.052Z,24.11
2022-08-24T23:50:56.659Z,24.10
2022-08-24T23:53:30.165Z,24.08
2022-08-24T23:56:10.579Z,24.08
2022-08-24T23:58:44.509Z,24.06
